Terminal Aerodrome Forecast
Issued by NWS Chicago, IL

Home | Current Version | Previous Version | Text Only | Print | Product List | Glossary Off
Versions: 1 2 3 4 5 6 7 8 9 10 11 12 13 14 15 16 17 18 19 20 21 22 23 24 25 26 27 28 29 30 31 32 33 34

000
FTUS43 KLOT 241100
TAFRFD
TAF
KRFD 241128Z 2412/2512 34004KT 6SM BR BKN007 OVC120
      TEMPO 2412/2415 2SM BR OVC003
     FM241500 36011G18KT 3SM -RASN BR BKN008 OVC015
     FM242100 30012KT 4SM -RASN BR OVC010
     FM250300 28012KT P6SM OVC015=

USA.gov is the U.S. government's official web portal to all federal, state and local government web resources and services.